Lanham, Nebraska
Current Conditions -  °F | °C
As of 7:15 AM on Thursday 23 Oct 2014 (Local Time) from KMYZ Reporting Station
Overcast Overcast  
Wind Chill: 61°   Ceiling: 2100
Heat Index: 61°   Visibility: 10mi
Dew Point: 59°   Wind: 5mph
Humidity: 94%   Direction: 190°S
Pressure: 30.06"   Gusts: NA
Location:  40.0451°N, 96.8032°W
Report Text: KMYZ 231215Z AUTO 19004KT 10SM OVC021 16/15 A3006 RMK AO2
Loading
Personal Weather Stations






























Interactive Weather Map
Tropical Storm Tracking
New forecast layout! Learn more

10-Day Weather Forecast

Advertisements
Track Severe Weather on mobile